Time;durP1;ratioP1;P1;durP2;ratioP2;P2;SDS_P1;SDS_P2;PMS_P1;PMS_P2;Temp;Humidity;BMP_temperature;BMP_pressure;BME280_temperature;BME280_humidity;BME280_pressure;Samples;Min_cycle;Max_cycle;Signal;HPM_P1;HPM_P2
2021/08/19 00:02:09;;;;;;;0.43;0.43;;;;;;;16.88;61.88;98530.69;5075652;28;20090;-63
2021/08/19 00:04:38;;;;;;;0.95;0.90;;;;;;;16.88;61.93;98525.16;5075136;28;20069;-63
2021/08/19 00:07:08;;;;;;;0.55;0.55;;;;;;;16.90;61.89;98532.09;5075785;28;20043;-63
2021/08/19 00:09:40;;;;;;;0.40;0.40;;;;;;;16.92;61.85;98523.47;5075862;28;20513;-62
2021/08/19 00:12:08;;;;;;;1.00;0.40;;;;;;;16.93;61.90;98525.97;5075410;28;20552;-63
2021/08/19 00:14:40;;;;;;;1.75;0.77;;;;;;;16.94;61.88;98527.59;5075464;28;20384;-63
2021/08/19 00:17:08;;;;;;;0.63;0.63;;;;;;;16.97;61.89;98531.75;5075148;28;20067;-63
2021/08/19 00:19:37;;;;;;;0.50;0.50;;;;;;;16.99;61.92;98532.31;5075072;28;20050;-63
2021/08/19 00:22:05;;;;;;;0.30;0.30;;;;;;;17.02;61.80;98528.97;5075356;28;20498;-64
2021/08/19 00:24:32;;;;;;;0.47;0.47;;;;;;;17.03;61.90;98535.34;5074981;28;20048;-63
2021/08/19 00:26:59;;;;;;;0.35;0.35;;;;;;;17.03;61.82;98533.38;5074770;28;20047;-63
2021/08/19 00:29:28;;;;;;;3.72;1.27;;;;;;;17.03;61.87;98532.56;5075154;28;20075;-63
2021/08/19 00:31:57;;;;;;;0.70;0.70;;;;;;;17.02;62.02;98534.53;5088220;28;20035;-63
2021/08/19 00:34:25;;;;;;;0.45;0.45;;;;;;;17.04;61.87;98532.28;5077601;28;20113;-63
2021/08/19 00:36:56;;;;;;;0.30;0.30;;;;;;;17.07;61.81;98528.94;5075123;28;20130;-63
2021/08/19 00:39:23;;;;;;;0.50;0.50;;;;;;;17.08;61.82;98533.38;5074922;28;20044;-63
2021/08/19 00:41:52;;;;;;;0.85;0.40;;;;;;;17.10;61.87;98528.38;5074910;28;20178;-63
2021/08/19 00:44:19;;;;;;;0.77;0.77;;;;;;;17.15;61.92;98530.28;5074521;28;20040;-64
2021/08/19 00:46:47;;;;;;;0.50;0.50;;;;;;;17.20;61.91;98535.81;5070752;28;20040;-63
2021/08/19 00:49:15;;;;;;;0.68;0.68;;;;;;;17.25;61.74;98533.00;5074750;28;20028;-63
2021/08/19 00:51:45;;;;;;;0.38;0.38;;;;;;;17.30;61.58;98527.44;5074662;28;20627;-64
2021/08/19 00:54:19;;;;;;;0.20;0.20;;;;;;;17.35;61.46;98526.56;5074718;28;20052;-64
2021/08/19 00:56:45;;;;;;;0.57;0.50;;;;;;;17.38;61.42;98537.09;5058190;28;20046;-64
2021/08/19 00:59:19;;;;;;;0.40;0.40;;;;;;;17.42;61.37;98540.16;5071163;28;20764;-63
2021/08/19 01:01:46;;;;;;;3.72;0.55;;;;;;;17.43;61.22;98537.09;5072620;28;20193;-63
2021/08/19 01:04:14;;;;;;;0.15;0.15;;;;;;;17.42;61.46;98538.19;5071617;28;20044;-63
2021/08/19 01:06:44;;;;;;;0.50;0.50;;;;;;;17.43;61.26;98539.00;5054231;28;20072;-63
2021/08/19 01:09:13;;;;;;;2.38;0.70;;;;;;;17.44;61.21;98547.06;5053872;28;20101;-64
2021/08/19 01:11:43;;;;;;;0.32;0.32;;;;;;;17.46;61.35;98542.06;5054569;28;20040;-64
2021/08/19 01:14:13;;;;;;;0.75;0.55;;;;;;;17.48;61.21;98537.03;5054162;28;20040;-66
2021/08/19 01:16:39;;;;;;;1.40;0.40;;;;;;;17.53;61.23;98536.19;5072308;28;20037;-67
2021/08/19 01:19:05;;;;;;;0.77;0.75;;;;;;;17.55;61.32;98538.66;5054073;28;20422;-68
2021/08/19 01:21:32;;;;;;;0.57;0.57;;;;;;;17.61;60.99;98541.13;5071977;28;20127;-67
2021/08/19 01:23:58;;;;;;;0.30;0.30;;;;;;;17.69;60.83;98543.28;5056513;28;20510;-67
2021/08/19 01:26:25;;;;;;;0.20;0.20;;;;;;;17.80;60.58;98540.44;5053573;28;20043;-67
2021/08/19 01:28:55;;;;;;;0.38;0.38;;;;;;;17.92;60.41;98551.19;5071778;28;20040;-68
2021/08/19 01:31:24;;;;;;;1.27;1.17;;;;;;;18.18;59.93;98549.03;5072075;28;20414;-66
2021/08/19 01:33:51;;;;;;;0.68;0.68;;;;;;;19.25;57.32;98549.84;5071845;28;20043;-68
2021/08/19 01:36:18;;;;;;;0.43;0.30;;;;;;;20.92;53.93;98550.53;5054225;28;20083;-67
2021/08/19 01:38:46;;;;;;;0.32;0.30;;;;;;;22.65;50.38;98543.16;5054304;28;20136;-67
2021/08/19 01:41:15;;;;;;;1.98;0.55;;;;;;;24.31;47.17;98545.47;5057818;28;20036;-67
2021/08/19 01:43:44;;;;;;;0.15;0.15;;;;;;;25.57;45.47;98549.97;5074923;28;20453;-68
2021/08/19 01:46:12;;;;;;;0.30;0.30;;;;;;;26.55;44.40;98549.63;5058337;28;20494;-67
2021/08/19 01:48:42;;;;;;;0.50;0.50;;;;;;;27.34;43.38;98551.50;5074645;28;20384;-67
2021/08/19 01:51:21;;;;;;;0.45;0.45;;;;;;;28.03;42.86;98546.81;5076405;28;20106;-67
2021/08/19 01:53:50;;;;;;;0.40;0.30;;;;;;;28.71;42.04;98547.13;5056524;28;20403;-66
2021/08/19 01:56:20;;;;;;;0.30;0.30;;;;;;;29.31;41.68;98552.72;5057660;28;20048;-67
2021/08/19 01:58:47;;;;;;;0.55;0.55;;;;;;;29.62;41.59;98551.00;5076076;28;20498;-68
2021/08/19 02:01:22;;;;;;;0.20;0.20;;;;;;;29.86;41.76;98549.97;5074879;28;20036;-69
2021/08/19 02:03:50;;;;;;;0.17;0.17;;;;;;;30.33;41.28;98560.25;5057387;28;20112;-68
2021/08/19 02:06:21;;;;;;;0.43;0.30;;;;;;;30.77;40.94;98561.13;5079882;28;20123;-71
2021/08/19 02:08:48;;;;;;;0.10;0.10;;;;;;;31.18;40.72;98552.94;5057852;28;20041;-67
2021/08/19 02:11:17;;;;;;;0.40;0.20;;;;;;;31.72;39.96;98556.66;5058674;28;20411;-67
2021/08/19 02:13:45;;;;;;;0.32;0.32;;;;;;;32.22;39.35;98565.06;5079581;28;20044;-67
2021/08/19 02:16:12;;;;;;;0.32;0.32;;;;;;;32.65;38.96;98559.88;5043186;28;20048;-66
2021/08/19 02:18:40;;;;;;;0.15;0.15;;;;;;;33.09;38.65;98561.97;5075728;28;20057;-65
2021/08/19 02:21:07;;;;;;;0.52;0.52;;;;;;;33.46;38.60;98557.41;5057359;28;20041;-67
2021/08/19 02:23:33;;;;;;;0.28;0.28;;;;;;;33.82;37.88;98552.81;5075588;28;20044;-67
2021/08/19 02:26:00;;;;;;;0.32;0.32;;;;;;;34.26;37.50;98551.03;5057771;28;20054;-66
2021/08/19 02:28:28;;;;;;;1.75;1.17;;;;;;;34.65;37.14;98563.75;5075504;28;20054;-67
2021/08/19 02:30:56;;;;;;;0.90;0.32;;;;;;;35.06;36.67;98563.44;5057520;28;20033;-66
2021/08/19 02:33:24;;;;;;;0.22;0.22;;;;;;;35.40;36.76;98557.34;5079052;28;20037;-66
2021/08/19 02:35:52;;;;;;;0.10;0.10;;;;;;;35.67;36.21;98562.63;5086228;28;20044;-65
2021/08/19 02:38:21;;;;;;;0.30;0.30;;;;;;;35.91;36.08;98555.25;5057434;28;20051;-65
2021/08/19 02:40:50;;;;;;;0.10;0.10;;;;;;;36.12;35.87;98569.47;5057375;28;20037;-65
2021/08/19 02:43:18;;;;;;;0.13;0.13;;;;;;;36.33;36.01;98569.84;5057245;28;20063;-65
2021/08/19 02:45:46;;;;;;;0.85;0.85;;;;;;;36.57;35.51;98571.72;5057101;28;20036;-66
2021/08/19 02:48:13;;;;;;;0.40;0.32;;;;;;;36.90;35.27;98571.59;5057084;28;20063;-64
2021/08/19 02:50:42;;;;;;;0.28;0.25;;;;;;;37.31;34.82;98573.75;5074829;28;20032;-64
2021/08/19 02:53:11;;;;;;;1.23;0.50;;;;;;;37.63;34.75;98582.03;5056991;28;20049;-64
2021/08/19 02:55:40;;;;;;;0.20;0.20;;;;;;;37.98;34.08;98582.94;5056933;28;20410;-65
2021/08/19 02:58:06;;;;;;;0.30;0.30;;;;;;;38.31;33.81;98574.81;5056647;28;20094;-64
2021/08/19 03:00:33;;;;;;;0.30;0.30;;;;;;;38.85;33.18;98568.34;5057029;28;20036;-64
2021/08/19 03:03:00;;;;;;;0.30;0.30;;;;;;;39.33;32.58;98577.09;5073161;28;20362;-64
2021/08/19 03:05:27;;;;;;;0.30;0.30;;;;;;;39.50;32.70;98570.19;5072892;28;20114;-63
2021/08/19 03:07:54;;;;;;;0.10;0.10;;;;;;;39.72;32.22;98569.84;5056796;28;20517;-64
2021/08/19 03:10:23;;;;;;;0.10;0.10;;;;;;;39.94;32.12;98570.25;5074977;28;20037;-65
2021/08/19 03:12:50;;;;;;;0.10;0.10;;;;;;;40.11;31.88;98568.31;5073134;28;20036;-64
2021/08/19 03:15:17;;;;;;;0.30;0.30;;;;;;;40.29;31.98;98556.44;5056645;28;20037;-65
2021/08/19 03:17:43;;;;;;;0.30;0.30;;;;;;;41.07;31.06;98558.00;5073074;28;20124;-64
2021/08/19 03:20:11;;;;;;;1.85;1.20;;;;;;;41.35;30.88;98559.38;5073069;28;20144;-65
2021/08/19 03:22:38;;;;;;;0.47;0.43;;;;;;;41.39;31.02;98565.03;5074145;28;20059;-65
2021/08/19 03:25:08;;;;;;;0.20;0.20;;;;;;;41.51;30.94;98549.91;5089456;28;20056;-66
2021/08/19 03:27:36;;;;;;;0.50;0.38;;;;;;;41.58;30.72;98555.50;5094519;28;20046;-65
2021/08/19 03:30:05;;;;;;;0.10;0.10;;;;;;;41.63;30.85;98554.13;5075999;28;20048;-65
2021/08/19 03:32:33;;;;;;;0.47;0.47;;;;;;;41.81;30.47;98565.19;5076015;28;20031;-65
2021/08/19 03:35:01;;;;;;;0.20;0.20;;;;;;;42.00;30.30;98569.22;5075446;28;20502;-64
2021/08/19 03:37:29;;;;;;;0.32;0.30;;;;;;;42.18;30.36;98562.94;5093399;28;20040;-65
2021/08/19 03:40:00;;;;;;;0.20;0.20;;;;;;;42.38;30.23;98557.00;5076009;28;20133;-65
2021/08/19 03:42:28;;;;;;;0.28;0.28;;;;;;;42.57;29.55;98554.38;5075755;28;20094;-65
2021/08/19 03:44:57;;;;;;;1.13;0.52;;;;;;;42.77;29.87;98554.19;5075840;28;20036;-65
2021/08/19 03:47:26;;;;;;;0.90;0.32;;;;;;;42.99;29.16;98565.88;5092629;28;20043;-65
2021/08/19 03:49:54;;;;;;;3.60;0.52;;;;;;;43.23;28.71;98557.69;5075591;28;20032;-66
2021/08/19 03:52:24;;;;;;;0.57;0.57;;;;;;;43.45;28.65;98548.28;5076216;28;20040;-62
2021/08/19 03:54:53;;;;;;;1.08;0.20;;;;;;;43.34;29.25;98545.75;5075956;28;20046;-65
2021/08/19 03:57:21;;;;;;;0.40;0.40;;;;;;;43.44;28.67;98550.38;5075446;28;20036;-67
2021/08/19 03:59:49;;;;;;;0.10;0.10;;;;;;;43.67;28.45;98545.44;5092639;28;20044;-65
2021/08/19 04:02:17;;;;;;;0.20;0.20;;;;;;;43.78;28.58;98545.09;5091939;28;20039;-65
2021/08/19 04:04:47;;;;;;;0.17;0.17;;;;;;;43.84;28.28;98543.22;5075300;28;20036;-65
2021/08/19 04:07:17;;;;;;;0.45;0.45;;;;;;;43.88;28.73;98544.72;5075158;28;20396;-67
2021/08/19 04:09:45;;;;;;;3.92;0.55;;;;;;;44.03;28.38;98544.19;5092596;28;20036;-66
2021/08/19 04:12:14;;;;;;;0.43;0.43;;;;;;;44.06;28.21;98541.16;5092295;28;20043;-65
2021/08/19 04:14:43;;;;;;;1.85;0.55;;;;;;;44.17;28.31;98546.53;5074960;28;20071;-65
2021/08/19 04:17:10;;;;;;;0.30;0.30;;;;;;;44.38;27.70;98541.22;5075400;28;20036;-65
2021/08/19 04:19:38;;;;;;;1.45;0.90;;;;;;;44.47;27.75;98540.47;5094092;28;20043;-66
2021/08/19 04:22:07;;;;;;;0.40;0.40;;;;;;;44.52;27.52;98534.88;5075207;28;20047;-66
2021/08/19 04:24:46;;;;;;;0.30;0.30;;;;;;;44.68;27.18;98533.88;5076028;28;20048;-69
2021/08/19 04:27:14;;;;;;;0.20;0.20;;;;;;;45.01;26.75;98544.94;5075845;28;20039;-68
2021/08/19 04:29:41;;;;;;;0.22;0.22;;;;;;;45.22;26.52;98551.13;5076513;28;20035;-67
2021/08/19 04:32:09;;;;;;;0.25;0.25;;;;;;;45.38;26.64;98547.97;5075704;28;20042;-66
2021/08/19 04:34:37;;;;;;;0.40;0.35;;;;;;;45.52;26.26;98551.56;5092755;28;20040;-65
2021/08/19 04:37:05;;;;;;;0.22;0.22;;;;;;;45.52;26.11;98548.69;5099102;28;20044;-70
2021/08/19 04:39:32;;;;;;;0.20;0.20;;;;;;;45.62;26.10;98551.09;5078766;28;20457;-66
2021/08/19 04:42:01;;;;;;;0.40;0.40;;;;;;;45.79;25.91;98542.06;5075278;28;20479;-66
2021/08/19 04:44:29;;;;;;;0.45;0.40;;;;;;;45.76;25.85;98543.88;5075480;28;20040;-66
2021/08/19 04:46:58;;;;;;;0.32;0.32;;;;;;;45.89;25.89;98542.91;5074690;28;20043;-66
2021/08/19 04:49:29;;;;;;;0.20;0.20;;;;;;;46.10;25.68;98550.66;5074919;28;20040;-65
2021/08/19 04:52:01;;;;;;;0.20;0.20;;;;;;;46.15;25.61;98547.09;5091796;28;20078;-65
2021/08/19 04:54:29;;;;;;;0.50;0.50;;;;;;;45.44;26.09;98548.19;5074498;28;20036;-66
2021/08/19 04:56:57;;;;;;;0.60;0.60;;;;;;;44.02;27.65;98554.13;5074969;28;20040;-65
2021/08/19 04:59:25;;;;;;;0.93;0.93;;;;;;;41.57;30.89;98553.88;5092856;28;20080;-65
2021/08/19 05:02:02;;;;;;;0.45;0.45;;;;;;;38.85;34.08;98558.94;5092855;28;20067;-66
2021/08/19 05:04:33;;;;;;;0.43;0.43;;;;;;;36.92;36.24;98552.75;5088125;28;20040;-65
2021/08/19 05:07:02;;;;;;;0.30;0.30;;;;;;;35.50;37.56;98544.28;5050471;28;20694;-66
2021/08/19 05:09:31;;;;;;;0.85;0.38;;;;;;;34.17;39.29;98553.38;5046953;28;20438;-65
2021/08/19 05:11:59;;;;;;;1.17;1.17;;;;;;;33.22;40.08;98559.66;5051416;28;20043;-66
2021/08/19 05:14:29;;;;;;;0.90;0.50;;;;;;;32.54;40.16;98562.63;5041609;28;20036;-67
2021/08/19 05:16:58;;;;;;;0.85;0.55;;;;;;;31.99;40.43;98551.75;5042547;28;20040;-65
2021/08/19 05:19:27;;;;;;;1.02;0.57;;;;;;;31.52;40.48;98558.75;5057433;28;20034;-66
2021/08/19 05:21:58;;;;;;;0.60;0.60;;;;;;;31.12;40.67;98558.13;5042626;28;20550;-66
2021/08/19 05:24:28;;;;;;;0.73;0.73;;;;;;;30.70;40.62;98542.78;5069788;28;20136;-65
2021/08/19 05:26:56;;;;;;;0.40;0.40;;;;;;;30.32;40.99;98552.16;5072992;28;20486;-65
2021/08/19 05:29:39;;;;;;;0.55;0.55;;;;;;;30.00;40.85;98530.44;5080230;28;20051;-66
2021/08/19 05:32:12;;;;;;;0.57;0.57;;;;;;;29.74;40.88;98544.41;5082255;28;20028;-67
2021/08/19 05:34:40;;;;;;;2.33;0.60;;;;;;;29.49;40.92;98544.66;5054654;28;20039;-67
2021/08/19 05:37:08;;;;;;;1.13;0.70;;;;;;;29.29;40.88;98552.28;5083877;28;20035;-66
2021/08/19 05:39:36;;;;;;;1.38;0.43;;;;;;;29.13;40.83;98560.72;5070770;28;20036;-65
2021/08/19 05:42:05;;;;;;;0.32;0.32;;;;;;;28.93;40.83;98543.69;5069892;28;20036;-66
2021/08/19 05:44:33;;;;;;;1.00;0.90;;;;;;;28.77;40.88;98548.47;5060372;28;20511;-66
2021/08/19 05:47:03;;;;;;;0.35;0.35;;;;;;;28.65;40.73;98536.09;5072874;28;20032;-66
2021/08/19 05:49:35;;;;;;;0.40;0.22;;;;;;;28.56;40.81;98543.06;5069200;28;20034;-65
2021/08/19 05:52:03;;;;;;;1.30;0.75;;;;;;;28.47;40.58;98546.88;5055886;28;20823;-68
2021/08/19 05:54:35;;;;;;;0.82;0.77;;;;;;;28.30;40.73;98544.38;5077830;28;20040;-65
2021/08/19 05:57:03;;;;;;;1.45;0.75;;;;;;;28.18;40.65;98545.25;5059135;28;20065;-67
2021/08/19 05:59:31;;;;;;;1.58;0.75;;;;;;;28.14;40.58;98539.50;5069072;28;20039;-66
2021/08/19 06:02:00;;;;;;;0.98;0.50;;;;;;;28.08;40.51;98540.94;5071857;28;20495;-67
2021/08/19 06:04:29;;;;;;;0.82;0.82;;;;;;;28.01;40.54;98534.25;5069130;28;20033;-66
2021/08/19 06:06:58;;;;;;;0.85;0.50;;;;;;;27.96;40.61;98540.97;5059439;28;20411;-66
2021/08/19 06:09:26;;;;;;;1.95;1.73;;;;;;;27.91;40.20;98538.38;5072323;28;20127;-66
2021/08/19 06:11:54;;;;;;;0.50;0.50;;;;;;;27.85;40.47;98540.63;5087303;28;20491;-65
2021/08/19 06:14:21;;;;;;;0.70;0.68;;;;;;;27.76;40.24;98546.41;5072238;28;20489;-65
2021/08/19 06:16:51;;;;;;;0.85;0.52;;;;;;;27.71;40.07;98540.19;5079449;28;20119;-67
2021/08/19 06:19:21;;;;;;;0.45;0.45;;;;;;;27.69;40.17;98545.38;5076004;28;20040;-65
2021/08/19 06:21:48;;;;;;;0.30;0.30;;;;;;;27.66;40.23;98540.44;5072065;28;20043;-66
2021/08/19 06:24:14;;;;;;;2.70;0.75;;;;;;;27.70;40.00;98545.00;5086858;28;20496;-66
2021/08/19 06:26:43;;;;;;;0.50;0.50;;;;;;;27.70;39.59;98533.72;5080989;28;20051;-66
2021/08/19 06:29:10;;;;;;;0.50;0.50;;;;;;;27.68;39.83;98541.75;5072800;28;20032;-65
2021/08/19 06:31:38;;;;;;;1.55;0.40;;;;;;;27.67;39.77;98536.44;5076132;28;20036;-65
2021/08/19 06:34:07;;;;;;;1.90;1.33;;;;;;;27.65;39.73;98525.53;5078447;28;20040;-66
2021/08/19 06:36:35;;;;;;;0.40;0.40;;;;;;;27.65;39.75;98533.16;5088468;28;20119;-66
2021/08/19 06:39:10;;;;;;;0.32;0.32;;;;;;;27.69;39.33;98534.91;5082061;28;20095;-71
2021/08/19 06:41:40;;;;;;;0.20;0.20;;;;;;;27.74;39.28;98531.03;5082364;28;20125;-65
2021/08/19 06:44:10;;;;;;;1.92;1.27;;;;;;;27.77;39.26;98530.31;5075690;28;20093;-66
2021/08/19 06:46:39;;;;;;;0.80;0.73;;;;;;;27.73;39.23;98529.38;5062178;28;20498;-69
2021/08/19 06:49:08;;;;;;;0.60;0.38;;;;;;;27.70;39.35;98530.91;5070123;28;20038;-66
2021/08/19 06:51:36;;;;;;;0.10;0.10;;;;;;;27.70;38.94;98532.91;5074081;28;20044;-67
2021/08/19 06:54:04;;;;;;;0.15;0.15;;;;;;;27.74;38.80;98531.03;5071641;28;20044;-69
2021/08/19 06:56:34;;;;;;;0.35;0.35;;;;;;;27.68;38.73;98524.81;5067910;28;20130;-69
2021/08/19 06:59:01;;;;;;;0.20;0.20;;;;;;;27.68;38.76;98519.16;5074660;28;20044;-67
2021/08/19 07:01:28;;;;;;;2.17;0.47;;;;;;;27.72;38.48;98530.56;5069087;28;20399;-66
2021/08/19 07:03:56;;;;;;;0.10;0.10;;;;;;;27.76;38.02;98520.19;5062763;28;20564;-66
2021/08/19 07:06:25;;;;;;;0.63;0.63;;;;;;;27.79;38.41;98522.31;5056286;28;20037;-65
2021/08/19 07:08:51;;;;;;;0.52;0.28;;;;;;;27.85;37.77;98525.69;5071357;28;20036;-66
2021/08/19 07:11:21;;;;;;;12.60;0.95;;;;;;;27.88;37.76;98516.53;5064935;28;20415;-65
2021/08/19 07:13:50;;;;;;;0.20;0.20;;;;;;;27.91;37.72;98513.78;5072855;28;20036;-66
2021/08/19 07:16:19;;;;;;;0.28;0.25;;;;;;;27.92;37.61;98514.63;5082390;28;20047;-65
2021/08/19 07:18:50;;;;;;;0.47;0.40;;;;;;;27.92;37.41;98511.81;5078021;28;20122;-66
2021/08/19 07:21:17;;;;;;;0.10;0.10;;;;;;;27.92;37.73;98514.63;5069422;28;20040;-66
2021/08/19 07:23:43;;;;;;;0.22;0.22;;;;;;;27.92;37.50;98504.16;5072033;28;20048;-66
2021/08/19 07:26:11;;;;;;;0.10;0.10;;;;;;;27.95;37.15;98506.25;5069222;28;20072;-66
2021/08/19 07:28:39;;;;;;;0.30;0.30;;;;;;;27.98;37.16;98509.59;5070356;28;20039;-66
2021/08/19 07:31:06;;;;;;;3.85;0.57;;;;;;;28.00;37.08;98505.22;5071735;28;20044;-66
2021/08/19 07:33:34;;;;;;;0.63;0.20;;;;;;;28.01;36.96;98506.84;5065813;28;20039;-67
2021/08/19 07:36:02;;;;;;;0.25;0.25;;;;;;;28.03;36.93;98503.69;5085666;28;20111;-66
2021/08/19 07:38:31;;;;;;;0.17;0.17;;;;;;;27.99;37.16;98499.94;5070949;28;20044;-66
2021/08/19 07:40:58;;;;;;;0.57;0.57;;;;;;;27.98;36.93;98501.94;5069930;28;20028;-65
2021/08/19 07:43:28;;;;;;;0.10;0.10;;;;;;;27.99;37.02;98499.94;5071477;28;20138;-66
2021/08/19 07:45:58;;;;;;;0.08;0.08;;;;;;;27.99;37.01;98497.94;5085290;28;20040;-65
2021/08/19 07:48:26;;;;;;;0.32;0.17;;;;;;;28.00;36.88;98493.91;5076891;28;20051;-66
2021/08/19 07:50:56;;;;;;;0.60;0.60;;;;;;;28.00;36.91;98495.94;5060488;28;20036;-66
2021/08/19 07:53:24;;;;;;;0.73;0.73;;;;;;;28.01;37.11;98489.13;5089183;28;20028;-66
2021/08/19 07:55:52;;;;;;;0.20;0.20;;;;;;;28.03;37.06;98487.56;5072442;28;20466;-65
2021/08/19 07:58:19;;;;;;;0.30;0.30;;;;;;;28.08;36.86;98492.16;5072470;28;20134;-66
2021/08/19 08:00:48;;;;;;;0.13;0.13;;;;;;;28.13;36.72;98500.34;5070778;28;20044;-64
2021/08/19 08:03:18;;;;;;;0.20;0.20;;;;;;;28.14;36.92;98494.34;5071276;28;20032;-66
2021/08/19 08:05:47;;;;;;;0.20;0.20;;;;;;;28.17;36.62;98494.81;5072600;28;20164;-67
2021/08/19 08:08:15;;;;;;;0.13;0.13;;;;;;;28.18;36.79;98488.81;5072209;28;20032;-65
2021/08/19 08:10:45;;;;;;;0.10;0.10;;;;;;;28.17;36.85;98495.63;5071025;28;20057;-66
2021/08/19 08:13:13;;;;;;;0.40;0.40;;;;;;;28.17;36.68;98475.88;5072087;28;20040;-66
2021/08/19 08:15:41;;;;;;;1.13;0.55;;;;;;;28.21;36.80;98471.16;5071463;28;20067;-65
2021/08/19 08:18:14;;;;;;;0.52;0.52;;;;;;;28.21;36.73;98475.94;5072190;28;20042;-66
2021/08/19 08:20:42;;;;;;;0.10;0.10;;;;;;;28.21;36.83;98478.78;5066880;28;20552;-66
2021/08/19 08:23:10;;;;;;;0.90;0.30;;;;;;;28.24;36.63;98478.03;5069642;28;20039;-66
2021/08/19 08:25:40;;;;;;;0.15;0.15;;;;;;;28.27;36.93;98475.34;5066473;28;20052;-66
2021/08/19 08:28:10;;;;;;;0.40;0.40;;;;;;;28.27;36.69;98466.88;5070425;28;20041;-64
2021/08/19 08:30:39;;;;;;;0.10;0.10;;;;;;;28.24;36.82;98459.13;5079004;28;20047;-66
2021/08/19 08:33:07;;;;;;;0.25;0.25;;;;;;;28.25;36.72;98460.78;5081883;28;20031;-65
2021/08/19 08:35:37;;;;;;;0.20;0.20;;;;;;;28.26;36.72;98467.22;5090923;28;20059;-66
2021/08/19 08:38:08;;;;;;;0.28;0.28;;;;;;;28.29;36.75;98460.84;5078554;28;20036;-66
2021/08/19 08:40:38;;;;;;;0.17;0.17;;;;;;;28.29;36.83;98458.84;5077870;28;20039;-66
2021/08/19 08:43:07;;;;;;;0.30;0.30;;;;;;;28.25;36.88;98448.66;5072567;28;20048;-69
2021/08/19 08:45:38;;;;;;;0.10;0.10;;;;;;;28.25;37.11;98460.78;5086368;28;20044;-66
2021/08/19 08:48:10;;;;;;;0.13;0.13;;;;;;;28.23;36.75;98457.47;5071417;28;20090;-64
2021/08/19 08:50:38;;;;;;;0.32;0.32;;;;;;;28.23;36.94;98460.31;5072607;28;20036;-66
2021/08/19 08:53:08;;;;;;;0.28;0.28;;;;;;;28.23;37.06;98453.84;5076876;28;20068;-65
2021/08/19 08:55:34;;;;;;;0.25;0.25;;;;;;;28.24;37.01;98461.09;5076500;28;20071;-65
2021/08/19 08:58:06;;;;;;;1.00;0.90;;;;;;;28.25;36.97;98455.13;5072482;28;20036;-66
2021/08/19 09:00:33;;;;;;;0.40;0.40;;;;;;;28.27;36.97;98458.41;5072931;28;20516;-64
2021/08/19 09:03:01;;;;;;;0.60;0.20;;;;;;;28.31;36.78;98461.31;5059399;28;20036;-64
2021/08/19 09:05:30;;;;;;;0.57;0.57;;;;;;;28.34;36.86;98452.09;5053461;28;20041;-66
2021/08/19 09:08:00;;;;;;;0.35;0.32;;;;;;;28.37;36.86;98450.56;5072374;28;20402;-66
2021/08/19 09:10:30;;;;;;;0.85;0.77;;;;;;;28.41;36.90;98457.94;5062932;28;20135;-66
2021/08/19 09:12:57;;;;;;;0.30;0.30;;;;;;;28.44;36.60;98454.41;5086492;28;20043;-66
2021/08/19 09:15:27;;;;;;;3.80;0.57;;;;;;;28.48;36.66;98451.69;5089117;28;20047;-65
2021/08/19 09:18:02;;;;;;;1.50;0.50;;;;;;;28.48;36.54;98449.66;5069482;28;20062;-70
2021/08/19 09:20:39;;;;;;;0.20;0.20;;;;;;;28.49;36.49;98442.03;5087037;28;20133;-67
2021/08/19 09:23:14;;;;;;;0.55;0.22;;;;;;;28.50;36.51;98449.31;5087078;28;20116;-67
2021/08/19 09:25:42;;;;;;;1.60;0.70;;;;;;;28.50;36.59;98449.31;5041233;28;20400;-65
2021/08/19 09:28:29;;;;;;;0.65;0.20;;;;;;;28.53;36.57;98442.91;5051596;28;20058;-70
2021/08/19 09:31:11;;;;;;;0.55;0.55;;;;;;;28.56;36.50;98436.53;5049861;28;20036;-66
2021/08/19 09:33:44;;;;;;;0.15;0.15;;;;;;;28.58;36.50;98445.50;5031254;28;20049;-68
2021/08/19 09:36:13;;;;;;;1.65;0.88;;;;;;;28.58;36.68;98439.84;5060741;28;20136;-67
2021/08/19 09:38:42;;;;;;;0.50;0.30;;;;;;;28.60;36.46;98434.66;5050022;28;20442;-66
2021/08/19 09:41:53;;;;;;;0.20;0.20;;;;;;;28.66;36.41;98430.38;5054292;28;20036;-65
2021/08/19 09:44:33;;;;;;;0.52;0.52;;;;;;;28.73;36.27;98431.75;5051756;28;20581;-63
2021/08/19 09:47:05;;;;;;;0.43;0.43;;;;;;;28.78;36.41;98432.31;5050597;28;20037;-69
2021/08/19 09:49:35;;;;;;;0.40;0.40;;;;;;;28.84;36.19;98430.00;5050367;28;20078;-65
2021/08/19 09:52:19;;;;;;;0.77;0.77;;;;;;;28.87;36.08;98431.28;5048683;28;20445;-67
2021/08/19 09:54:47;;;;;;;0.30;0.25;;;;;;;28.92;36.33;98437.47;5047427;28;20037;-67
2021/08/19 09:57:13;;;;;;;0.30;0.30;;;;;;;28.95;35.97;98433.09;5048619;28;20045;-68
2021/08/19 09:59:41;;;;;;;0.52;0.43;;;;;;;29.00;36.17;98432.81;5051300;28;20471;-67
2021/08/19 10:02:09;;;;;;;0.93;0.63;;;;;;;29.01;36.04;98429.59;5059679;28;20075;-65
2021/08/19 10:04:36;;;;;;;0.50;0.50;;;;;;;28.94;36.23;98429.44;5058280;28;20052;-65
2021/08/19 10:07:03;;;;;;;0.30;0.30;;;;;;;28.93;36.32;98427.81;5052302;28;20073;-66
2021/08/19 10:09:32;;;;;;;0.50;0.50;;;;;;;28.93;36.04;98427.81;5052926;28;20044;-67
2021/08/19 10:12:09;;;;;;;0.47;0.47;;;;;;;28.99;36.01;98422.72;5064013;28;20045;-65
2021/08/19 10:14:36;;;;;;;1.42;0.50;;;;;;;29.02;36.04;98421.97;5061913;28;20617;-68
2021/08/19 10:17:02;;;;;;;0.73;0.47;;;;;;;29.04;36.04;98438.56;5068533;28;20041;-66
2021/08/19 10:19:36;;;;;;;0.40;0.40;;;;;;;29.00;36.13;98421.50;5070961;28;20048;-67
2021/08/19 10:22:17;;;;;;;1.42;0.40;;;;;;;29.00;36.17;98427.16;5064233;28;20048;-67
2021/08/19 10:24:48;;;;;;;0.10;0.10;;;;;;;29.02;35.99;98422.78;5074768;28;20414;-67
2021/08/19 10:27:20;;;;;;;0.38;0.20;;;;;;;29.04;35.92;98415.94;5077324;28;20053;-68
2021/08/19 10:29:59;;;;;;;3.20;1.08;;;;;;;29.06;35.84;98419.22;5060285;28;20040;-65
2021/08/19 10:32:28;;;;;;;0.77;0.77;;;;;;;29.06;35.96;98413.56;5093939;28;20040;-66
2021/08/19 10:34:55;;;;;;;0.15;0.15;;;;;;;29.08;35.96;98414.00;5097752;28;20127;-68
2021/08/19 10:37:41;;;;;;;0.38;0.38;;;;;;;29.13;35.69;98413.72;5092164;28;20062;-70
2021/08/19 10:40:31;;;;;;;1.85;0.50;;;;;;;29.16;35.78;98402.50;5063964;28;20437;-69
2021/08/19 10:43:00;;;;;;;0.30;0.30;;;;;;;29.22;35.83;98405.88;5080115;28;20044;-68
2021/08/19 10:45:26;;;;;;;0.20;0.20;;;;;;;29.21;35.80;98414.72;5080718;28;20563;-69
2021/08/19 10:47:53;;;;;;;0.98;0.20;;;;;;;29.25;35.87;98410.78;5086402;28;20078;-67
2021/08/19 10:50:27;;;;;;;0.68;0.40;;;;;;;29.32;35.62;98398.84;5078286;28;20044;-66
2021/08/19 10:52:54;;;;;;;0.55;0.43;;;;;;;29.39;35.62;98403.81;5083952;28;20044;-68
2021/08/19 10:55:20;;;;;;;0.30;0.25;;;;;;;29.47;35.62;98408.44;5077946;28;20036;-70
2021/08/19 10:57:47;;;;;;;0.82;0.52;;;;;;;29.51;35.56;98409.34;5078256;28;20048;-67
2021/08/19 11:00:13;;;;;;;0.20;0.20;;;;;;;29.56;35.28;98403.38;5082545;28;20059;-65
2021/08/19 11:02:41;;;;;;;0.10;0.10;;;;;;;29.59;35.24;98396.16;5080535;28;20052;-66
2021/08/19 11:05:11;;;;;;;0.25;0.25;;;;;;;29.59;35.36;98396.97;5084094;28;20059;-66
2021/08/19 11:07:47;;;;;;;0.70;0.70;;;;;;;29.61;35.36;98393.78;5075142;28;20047;-67
2021/08/19 11:10:23;;;;;;;0.73;0.30;;;;;;;29.64;35.14;98391.03;5086617;28;20039;-67
2021/08/19 11:12:49;;;;;;;0.20;0.20;;;;;;;29.68;35.30;98403.25;5078731;28;20075;-66
2021/08/19 11:15:15;;;;;;;0.20;0.20;;;;;;;29.75;35.07;98398.91;5071910;28;20048;-64
2021/08/19 11:17:51;;;;;;;0.55;0.40;;;;;;;29.77;35.27;98396.53;5072084;28;20032;-67
2021/08/19 11:20:35;;;;;;;0.10;0.10;;;;;;;29.77;35.06;98400.19;5081296;28;20131;-65
2021/08/19 11:23:03;;;;;;;;;;;;;;;29.73;35.21;98392.78;5086611;28;20481;-61
2021/08/19 11:25:29;;;;;;;0.35;0.35;;;;;;;29.71;35.17;98399.66;5082447;28;20417;-63
2021/08/19 11:27:55;;;;;;;0.90;0.73;;;;;;;29.73;35.13;98402.13;5076942;28;20445;-67
2021/08/19 11:30:35;;;;;;;0.35;0.35;;;;;;;29.73;35.14;98392.78;5091718;28;20044;-65
2021/08/19 11:33:21;;;;;;;0.38;0.38;;;;;;;29.66;35.21;98388.63;5083853;28;20044;-66
2021/08/19 11:35:50;;;;;;;0.10;0.10;;;;;;;29.62;35.49;98384.94;5068771;28;20498;-67
2021/08/19 11:38:24;;;;;;;0.20;0.20;;;;;;;29.58;35.35;98384.03;5078742;28;20036;-67
2021/08/19 11:41:11;;;;;;;0.43;0.40;;;;;;;29.51;35.47;98375.41;5083290;28;20584;-69
2021/08/19 11:43:38;;;;;;;0.20;0.20;;;;;;;29.44;35.64;98390.19;5080255;28;20044;-67
2021/08/19 11:46:07;;;;;;;0.73;0.50;;;;;;;29.43;35.58;98382.09;5087961;28;20041;-66